Time;durP1;ratioP1;P1;durP2;ratioP2;P2;SDS_P1;SDS_P2;PMS_P1;PMS_P2;Temp;Humidity;BMP_temperature;BMP_pressure;BME280_temperature;BME280_humidity;BME280_pressure;Samples;Min_cycle;Max_cycle;Signal;HPM_P1;HPM_P2
2022/09/27 00:01:55;;;;;;;1.55;1.20;;;17.10;65.70;;;;;;5055532;28;20178;-62
2022/09/27 00:04:20;;;;;;;2.08;1.45;;;17.10;65.70;;;;;;5054404;28;20232;-62
2022/09/27 00:06:46;;;;;;;1.27;0.90;;;17.10;65.70;;;;;;5054415;28;20532;-62
2022/09/27 00:09:11;;;;;;;2.92;1.38;;;17.10;65.60;;;;;;5054901;28;20647;-62
2022/09/27 00:11:39;;;;;;;1.98;1.10;;;17.10;65.70;;;;;;5054395;28;20219;-62
2022/09/27 00:14:05;;;;;;;1.30;1.13;;;17.00;65.60;;;;;;5055178;28;20179;-62
2022/09/27 00:16:32;;;;;;;3.60;1.30;;;17.10;65.70;;;;;;5054694;28;20167;-63
2022/09/27 00:19:02;;;;;;;1.08;0.95;;;17.10;65.70;;;;;;5054884;28;20719;-63
2022/09/27 00:21:29;;;;;;;1.17;1.00;;;17.10;65.70;;;;;;5055163;28;20171;-63
2022/09/27 00:23:55;;;;;;;1.40;0.93;;;17.10;65.60;;;;;;5054206;28;20179;-63
2022/09/27 00:26:20;;;;;;;2.42;1.02;;;17.10;65.70;;;;;;5054583;28;20178;-62
2022/09/27 00:28:46;;;;;;;1.33;0.90;;;17.10;65.70;;;;;;5054980;28;20182;-62
2022/09/27 00:31:19;;;;;;;0.88;0.88;;;17.00;65.70;;;;;;5053771;28;20185;-62
2022/09/27 00:33:46;;;;;;;1.45;1.10;;;17.00;65.60;;;;;;5055153;28;20175;-62
2022/09/27 00:36:12;;;;;;;1.90;1.20;;;17.00;65.70;;;;;;5054360;28;20262;-62
2022/09/27 00:38:39;;;;;;;2.10;1.10;;;17.00;65.70;;;;;;5054159;28;20258;-62
2022/09/27 00:41:05;;;;;;;2.22;0.98;;;17.00;66.50;;;;;;5054615;28;20187;-62
2022/09/27 00:43:43;;;;;;;1.30;0.85;;;17.00;65.70;;;;;;5054787;28;20262;-62
2022/09/27 00:46:08;;;;;;;1.48;1.27;;;17.00;65.70;;;;;;5053595;28;20175;-63
2022/09/27 00:48:34;;;;;;;2.05;1.00;;;17.00;65.70;;;;;;5054682;28;20173;-62
2022/09/27 00:51:00;;;;;;;1.90;0.98;;;17.00;65.70;;;;;;5054193;28;20186;-62
2022/09/27 00:53:34;;;;;;;1.27;1.00;;;17.00;65.70;;;;;;5052946;28;20213;-63
2022/09/27 00:56:01;;;;;;;1.65;0.95;;;17.00;65.70;;;;;;5036627;28;20190;-62
2022/09/27 00:58:45;;;;;;;1.00;0.80;;;17.00;65.70;;;;;;5053398;28;20221;-62
2022/09/27 01:01:12;;;;;;;1.95;1.00;;;17.00;65.70;;;;;;5038480;28;20180;-62
2022/09/27 01:03:39;;;;;;;1.80;0.88;;;17.00;65.70;;;;;;5053342;28;20236;-62
2022/09/27 01:06:06;;;;;;;1.73;0.95;;;17.00;65.70;;;;;;5052127;28;20190;-62
2022/09/27 01:08:31;;;;;;;1.55;1.15;;;17.00;65.70;;;;;;5036393;28;20225;-62
2022/09/27 01:11:16;;;;;;;1.38;0.77;;;17.00;65.70;;;;;;5054132;28;20226;-62
2022/09/27 01:14:15;;;;;;;1.00;0.90;;;17.00;65.70;;;;;;5037394;28;20270;-63
2022/09/27 01:17:04;;;;;;;1.17;1.05;;;17.00;65.70;;;;;;5039547;28;20178;-63
2022/09/27 01:19:39;;;;;;;1.15;1.00;;;17.00;65.70;;;;;;5037565;28;20242;-63
2022/09/27 01:22:16;;;;;;;1.98;1.08;;;17.00;65.70;;;;;;5051629;28;20675;-62
2022/09/27 01:24:54;;;;;;;1.33;1.20;;;17.00;65.70;;;;;;5054085;28;20183;-62
2022/09/27 01:27:47;;;;;;;1.92;1.10;;;17.00;65.70;;;;;;5052851;28;20582;-62
2022/09/27 01:30:23;;;;;;;1.17;1.02;;;17.00;65.70;;;;;;5052315;28;20179;-63
2022/09/27 01:33:10;;;;;;;1.20;0.80;;;17.00;65.70;;;;;;5036371;28;20537;-62
2022/09/27 01:36:05;;;;;;;1.30;0.90;;;17.00;65.70;;;;;;5053165;28;20309;-62
2022/09/27 01:38:36;;;;;;;1.90;0.80;;;16.90;65.70;;;;;;5053626;28;20214;-62
2022/09/27 01:41:11;;;;;;;1.75;1.10;;;16.90;65.70;;;;;;5052771;28;20182;-62
2022/09/27 01:44:00;;;;;;;1.70;1.13;;;16.90;65.70;;;;;;5052479;28;20181;-62
2022/09/27 01:46:28;;;;;;;1.33;0.80;;;16.90;65.70;;;;;;5052564;28;20563;-62
2022/09/27 01:48:54;;;;;;;1.20;0.90;;;16.80;65.60;;;;;;5035245;28;20519;-62
2022/09/27 01:51:27;;;;;;;1.33;0.90;;;16.90;65.70;;;;;;5051845;28;20213;-62
2022/09/27 01:53:53;;;;;;;0.98;0.68;;;16.90;65.70;;;;;;5036169;28;20297;-62
2022/09/27 01:56:29;;;;;;;1.88;0.95;;;16.90;65.70;;;;;;5051425;28;20509;-62
2022/09/27 01:59:02;;;;;;;2.95;1.10;;;16.90;65.70;;;;;;5036075;28;20202;-62
2022/09/27 02:01:28;;;;;;;1.40;0.90;;;16.90;65.70;;;;;;5052198;28;20179;-62
2022/09/27 02:03:54;;;;;;;1.13;0.85;;;16.90;65.70;;;;;;5034788;28;20250;-62
2022/09/27 02:06:34;;;;;;;1.92;0.90;;;16.90;65.70;;;;;;5035257;28;20270;-62
2022/09/27 02:09:09;;;;;;;1.25;0.85;;;16.90;65.70;;;;;;5051556;28;20178;-62
2022/09/27 02:11:35;;;;;;;1.52;0.70;;;16.90;65.70;;;;;;5035741;28;20226;-62
2022/09/27 02:14:16;;;;;;;0.93;0.75;;;16.90;65.70;;;;;;5051588;28;20659;-62
2022/09/27 02:16:50;;;;;;;1.45;0.95;;;16.90;65.70;;;;;;5051503;28;20179;-62
2022/09/27 02:19:34;;;;;;;0.80;0.70;;;16.90;65.70;;;;;;5051480;28;21104;-62
2022/09/27 02:22:14;;;;;;;0.60;0.60;;;16.90;65.70;;;;;;5052551;28;20649;-62
2022/09/27 02:24:50;;;;;;;1.27;0.80;;;16.80;65.60;;;;;;5051056;28;20780;-62
2022/09/27 02:27:24;;;;;;;0.65;0.65;;;16.90;65.80;;;;;;5051701;28;20182;-62
2022/09/27 02:29:57;;;;;;;1.42;0.70;;;16.90;65.80;;;;;;5052211;28;20221;-62
2022/09/27 02:32:22;;;;;;;0.90;0.85;;;16.80;65.60;;;;;;5050944;28;20171;-61
2022/09/27 02:34:48;;;;;;;1.13;0.90;;;16.80;65.60;;;;;;5051516;28;20529;-62
2022/09/27 02:37:14;;;;;;;1.15;0.90;;;16.90;65.70;;;;;;5050423;28;21243;-62
2022/09/27 02:39:39;;;;;;;0.80;0.75;;;16.80;65.60;;;;;;5051622;28;20214;-62
2022/09/27 02:42:05;;;;;;;0.68;0.68;;;16.80;65.60;;;;;;5051265;28;20535;-62
2022/09/27 02:44:30;;;;;;;0.70;0.60;;;16.70;65.60;;;;;;5052099;28;20179;-62
2022/09/27 02:47:18;;;;;;;1.13;0.70;;;16.80;65.70;;;;;;5034965;28;20588;-62
2022/09/27 02:50:03;;;;;;;1.10;0.90;;;16.80;65.60;;;;;;5051682;28;20189;-62
2022/09/27 02:52:40;;;;;;;1.98;0.70;;;16.80;65.70;;;;;;5050887;28;20197;-62
2022/09/27 02:55:13;;;;;;;0.90;0.60;;;16.80;65.70;;;;;;5052453;28;20194;-62
2022/09/27 02:57:48;;;;;;;1.95;1.17;;;16.80;65.70;;;;;;5035235;28;20175;-62
2022/09/27 03:00:19;;;;;;;1.08;0.80;;;16.80;65.70;;;;;;5051464;28;20681;-62
2022/09/27 03:02:56;;;;;;;1.75;0.80;;;16.80;65.70;;;;;;5035003;28;20178;-62
2022/09/27 03:05:26;;;;;;;1.00;0.60;;;16.80;65.60;;;;;;5051986;28;20171;-62
2022/09/27 03:07:52;;;;;;;1.48;0.68;;;16.80;65.70;;;;;;5035041;28;20182;-61
2022/09/27 03:10:19;;;;;;;2.50;0.95;;;16.80;65.70;;;;;;5051892;28;20222;-62
2022/09/27 03:12:45;;;;;;;0.68;0.68;;;16.80;65.70;;;;;;5051998;28;20175;-62
2022/09/27 03:15:11;;;;;;;0.95;0.68;;;16.80;65.70;;;;;;5052079;28;20171;-62
2022/09/27 03:17:36;;;;;;;0.90;0.77;;;16.70;65.70;;;;;;5052311;28;20182;-63
2022/09/27 03:20:02;;;;;;;0.75;0.57;;;16.80;65.70;;;;;;5051204;28;20238;-62
2022/09/27 03:22:28;;;;;;;0.90;0.70;;;16.70;65.70;;;;;;5052388;28;20210;-62
2022/09/27 03:24:53;;;;;;;0.52;0.50;;;16.70;65.70;;;;;;5052212;28;20254;-62
2022/09/27 03:27:19;;;;;;;0.70;0.70;;;16.70;65.70;;;;;;5051514;28;20274;-62
2022/09/27 03:29:44;;;;;;;0.63;0.60;;;16.80;65.70;;;;;;5052441;28;20195;-62
2022/09/27 03:32:10;;;;;;;1.65;0.65;;;16.70;65.70;;;;;;5052137;28;20194;-62
2022/09/27 03:34:35;;;;;;;1.58;0.90;;;16.70;65.70;;;;;;5051607;28;20168;-62
2022/09/27 03:37:01;;;;;;;1.65;0.77;;;16.70;65.70;;;;;;5051972;28;20176;-62
2022/09/27 03:39:26;;;;;;;1.15;0.70;;;16.70;65.70;;;;;;5052163;28;20203;-63
2022/09/27 03:41:52;;;;;;;0.85;0.70;;;16.70;65.70;;;;;;5053063;28;20171;-62
2022/09/27 03:44:17;;;;;;;0.52;0.52;;;16.70;65.70;;;;;;5055514;28;20622;-63
2022/09/27 03:46:43;;;;;;;1.00;0.90;;;16.70;65.60;;;;;;5055909;28;20175;-62
2022/09/27 03:49:09;;;;;;;0.73;0.70;;;16.70;65.70;;;;;;5054915;28;20179;-62
2022/09/27 03:51:34;;;;;;;0.40;0.40;;;16.70;65.70;;;;;;5055848;28;20182;-62
2022/09/27 03:54:00;;;;;;;0.60;0.60;;;16.70;65.70;;;;;;5055344;28;20175;-62
2022/09/27 03:56:25;;;;;;;0.60;0.60;;;16.70;65.70;;;;;;5054709;28;20179;-62
2022/09/27 03:58:51;;;;;;;0.93;0.70;;;16.70;65.70;;;;;;5055580;28;20213;-62
2022/09/27 04:01:16;;;;;;;0.65;0.50;;;16.70;65.70;;;;;;5055411;28;20228;-62
2022/09/27 04:03:42;;;;;;;0.95;0.73;;;16.70;65.70;;;;;;5054767;28;20167;-62
2022/09/27 04:06:07;;;;;;;0.63;0.60;;;16.70;65.70;;;;;;5055368;28;20262;-62
2022/09/27 04:08:33;;;;;;;1.92;0.80;;;16.70;65.70;;;;;;5055285;28;20652;-62
2022/09/27 04:10:58;;;;;;;1.52;0.50;;;16.70;65.70;;;;;;5054349;28;20227;-62
2022/09/27 04:13:24;;;;;;;1.42;0.70;;;16.70;65.70;;;;;;5055414;28;20190;-62
2022/09/27 04:15:50;;;;;;;0.70;0.70;;;16.70;65.70;;;;;;5054451;28;20213;-63
2022/09/27 04:18:15;;;;;;;0.50;0.50;;;16.70;65.60;;;;;;5055020;28;20204;-63
2022/09/27 04:20:41;;;;;;;2.05;0.68;;;16.70;65.70;;;;;;5055130;28;20237;-63
2022/09/27 04:23:07;;;;;;;1.58;0.70;;;16.70;65.70;;;;;;5052821;28;20176;-62
2022/09/27 04:25:32;;;;;;;0.80;0.80;;;16.60;65.60;;;;;;5055063;28;20178;-61
2022/09/27 04:27:58;;;;;;;1.75;0.80;;;16.60;65.60;;;;;;5054919;28;20199;-61
2022/09/27 04:30:25;;;;;;;1.10;0.63;;;16.60;65.60;;;;;;5054405;28;20175;-60
2022/09/27 04:32:50;;;;;;;2.10;0.80;;;16.60;65.60;;;;;;5054939;28;20190;-60
2022/09/27 04:38:00;;;;;;;1.02;0.63;;;16.60;65.60;;;;;;5053732;28;20549;-60
2022/09/27 04:40:25;;;;;;;1.38;0.80;;;16.60;65.60;;;;;;5054499;28;20302;-61
2022/09/27 04:42:51;;;;;;;0.80;0.73;;;16.60;65.60;;;;;;5054880;28;20202;-61
2022/09/27 04:45:17;;;;;;;1.70;0.75;;;16.70;65.70;;;;;;5053773;28;20179;-61
2022/09/27 04:47:46;;;;;;;2.55;0.80;;;16.60;65.60;;;;;;5054755;28;20586;-61
2022/09/27 04:50:12;;;;;;;0.60;0.52;;;16.60;65.60;;;;;;5054340;28;20274;-61
2022/09/27 04:52:39;;;;;;;1.20;0.70;;;16.60;65.60;;;;;;5053383;28;20286;-61
2022/09/27 04:55:05;;;;;;;0.68;0.60;;;16.60;65.70;;;;;;5054446;28;20183;-61
2022/09/27 04:57:31;;;;;;;1.27;0.70;;;16.60;65.60;;;;;;5054351;28;20171;-61
2022/09/27 04:59:59;;;;;;;1.88;0.70;;;16.60;65.60;;;;;;5053811;28;20218;-61
2022/09/27 05:02:27;;;;;;;1.02;0.75;;;16.60;65.60;;;;;;5054467;28;20199;-61
2022/09/27 05:04:56;;;;;;;0.50;0.50;;;16.60;65.60;;;;;;5053544;28;20179;-60
2022/09/27 05:07:22;;;;;;;0.80;0.77;;;16.60;65.60;;;;;;5054482;28;20171;-60
2022/09/27 05:09:48;;;;;;;0.70;0.68;;;16.60;65.60;;;;;;5054084;28;20182;-61
2022/09/27 05:12:13;;;;;;;0.70;0.60;;;16.60;65.60;;;;;;5053026;28;20691;-61
2022/09/27 05:14:39;;;;;;;1.02;0.65;;;16.60;65.60;;;;;;5053903;28;20171;-63
2022/09/27 05:17:06;;;;;;;0.77;0.60;;;16.60;65.60;;;;;;5053681;28;20182;-64
2022/09/27 05:19:32;;;;;;;0.60;0.60;;;16.60;65.60;;;;;;5052966;28;20215;-61
2022/09/27 05:21:58;;;;;;;1.02;0.70;;;16.60;65.60;;;;;;5053769;28;20258;-61
2022/09/27 05:24:23;;;;;;;1.08;0.60;;;16.60;65.60;;;;;;5053998;28;20201;-61
2022/09/27 05:26:49;;;;;;;0.50;0.50;;;16.60;65.60;;;;;;5053206;28;20643;-60
2022/09/27 05:29:16;;;;;;;1.00;0.70;;;16.60;65.60;;;;;;5053756;28;20536;-60
2022/09/27 05:31:42;;;;;;;1.20;0.60;;;16.60;65.70;;;;;;5054013;28;20179;-60
2022/09/27 05:34:09;;;;;;;0.70;0.70;;;16.60;65.60;;;;;;5052764;28;20171;-61
2022/09/27 05:36:36;;;;;;;1.20;0.70;;;16.50;65.60;;;;;;5053920;28;20178;-60
2022/09/27 05:39:01;;;;;;;0.60;0.52;;;16.50;65.50;;;;;;5053488;28;20203;-61
2022/09/27 05:41:27;;;;;;;1.23;0.63;;;16.50;65.50;;;;;;5052951;28;20182;-62
2022/09/27 05:43:52;;;;;;;1.70;0.82;;;16.60;65.60;;;;;;5053584;28;20266;-62
2022/09/27 05:46:18;;;;;;;1.02;0.70;;;16.60;65.60;;;;;;5053683;28;20266;-61
2022/09/27 05:48:43;;;;;;;0.70;0.60;;;16.50;65.50;;;;;;5052666;28;20210;-61
2022/09/27 05:51:09;;;;;;;1.90;0.90;;;16.60;65.60;;;;;;5053216;28;20175;-61
2022/09/27 05:53:35;;;;;;;1.08;0.60;;;16.50;65.50;;;;;;5053298;28;20179;-61
2022/09/27 05:56:02;;;;;;;0.88;0.63;;;16.50;65.50;;;;;;5052326;28;20171;-61
2022/09/27 05:58:28;;;;;;;0.80;0.70;;;16.50;65.50;;;;;;5053273;28;20579;-61
2022/09/27 06:00:54;;;;;;;1.83;0.80;;;16.50;65.50;;;;;;5053219;28;20211;-61
2022/09/27 06:03:19;;;;;;;1.38;0.85;;;16.50;65.50;;;;;;5052321;28;20608;-61
2022/09/27 06:05:45;;;;;;;0.88;0.63;;;16.50;65.50;;;;;;5052173;28;20261;-61
2022/09/27 06:08:11;;;;;;;1.02;0.70;;;16.50;65.40;;;;;;5052017;28;20217;-61
2022/09/27 06:10:37;;;;;;;0.60;0.60;;;16.50;65.40;;;;;;5053121;28;20246;-61
2022/09/27 06:13:04;;;;;;;1.83;0.77;;;16.50;66.30;;;;;;5052806;28;20191;-61
2022/09/27 06:15:30;;;;;;;1.38;0.70;;;16.50;65.40;;;;;;5052319;28;20182;-61
2022/09/27 06:17:57;;;;;;;0.50;0.50;;;16.50;65.50;;;;;;5052841;28;20214;-62
2022/09/27 06:20:22;;;;;;;1.75;0.68;;;16.50;65.50;;;;;;5053049;28;20294;-61
2022/09/27 06:22:48;;;;;;;0.95;0.70;;;16.50;65.40;;;;;;5052397;28;20579;-61
2022/09/27 06:25:13;;;;;;;0.60;0.60;;;16.50;65.40;;;;;;5052793;28;20175;-61
2022/09/27 06:27:39;;;;;;;0.60;0.50;;;16.60;65.40;;;;;;5052928;28;20177;-61
2022/09/27 06:30:05;;;;;;;0.80;0.75;;;16.60;65.40;;;;;;5051720;28;20598;-61
2022/09/27 06:32:31;;;;;;;1.63;0.73;;;16.60;65.40;;;;;;5052770;28;20178;-61
2022/09/27 06:34:56;;;;;;;1.05;0.60;;;16.50;65.30;;;;;;5052410;28;20232;-61
2022/09/27 06:37:25;;;;;;;0.45;0.45;;;16.60;65.20;;;;;;5052233;28;20179;-61
2022/09/27 06:39:52;;;;;;;0.85;0.73;;;16.60;65.10;;;;;;5052740;28;20210;-61
2022/09/27 06:42:18;;;;;;;0.70;0.70;;;16.70;65.10;;;;;;5052502;28;20182;-62
2022/09/27 06:44:46;;;;;;;1.13;0.50;;;16.70;65.00;;;;;;5051933;28;20175;-61
2022/09/27 06:47:11;;;;;;;1.08;0.65;;;16.90;65.00;;;;;;5052271;28;20179;-61
2022/09/27 06:49:37;;;;;;;1.15;0.60;;;17.10;65.80;;;;;;5053005;28;20171;-61
2022/09/27 06:52:02;;;;;;;1.70;0.70;;;17.20;64.90;;;;;;5051527;28;20300;-63
2022/09/27 06:54:28;;;;;;;1.17;0.80;;;17.40;64.60;;;;;;5052616;28;20179;-64
2022/09/27 06:56:53;;;;;;;3.63;1.15;;;17.60;64.00;;;;;;5052621;28;20180;-65
2022/09/27 07:02:03;;;;;;;1.60;0.65;;;18.10;62.70;;;;;;5052304;28;20182;-61
2022/09/27 07:04:29;;;;;;;3.72;1.90;;;18.30;61.90;;;;;;5051887;28;20171;-61
2022/09/27 07:06:54;;;;;;;2.22;0.93;;;18.40;61.40;;;;;;5052427;28;20179;-61
2022/09/27 07:09:20;;;;;;;3.70;1.27;;;18.50;61.10;;;;;;5052116;28;20179;-60
2022/09/27 07:11:45;;;;;;;8.52;1.25;;;18.50;60.90;;;;;;5051503;28;20327;-61
2022/09/27 07:14:11;;;;;;;2.35;1.00;;;18.50;60.70;;;;;;5052205;28;20179;-61
2022/09/27 07:16:37;;;;;;;3.72;1.13;;;18.50;60.60;;;;;;5053632;28;20171;-61
2022/09/27 07:19:02;;;;;;;3.40;1.15;;;18.40;60.60;;;;;;5055402;28;20389;-61
2022/09/27 07:21:28;;;;;;;2.13;1.08;;;18.30;60.80;;;;;;5056287;28;20277;-61
2022/09/27 07:23:53;;;;;;;1.95;0.80;;;18.20;60.90;;;;;;5056111;28;20197;-61
2022/09/27 07:26:19;;;;;;;4.55;1.42;;;18.10;61.00;;;;;;5055248;28;20224;-61
2022/09/27 07:28:44;;;;;;;2.60;0.75;;;18.10;61.10;;;;;;5056045;28;20642;-60
2022/09/27 07:31:11;;;;;;;2.10;1.00;;;18.00;61.20;;;;;;5056031;28;20172;-60
2022/09/27 07:33:36;;;;;;;1.05;0.75;;;18.00;61.30;;;;;;5055333;28;20175;-61
2022/09/27 07:36:09;;;;;;;1.63;0.70;;;17.90;61.30;;;;;;5055842;28;20198;-61
2022/09/27 07:38:35;;;;;;;3.10;0.80;;;17.80;61.30;;;;;;5056115;28;20175;-61
2022/09/27 07:41:08;;;;;;;2.42;0.98;;;17.80;61.60;;;;;;5054820;28;20249;-61
2022/09/27 07:43:33;;;;;;;3.25;1.00;;;17.80;61.70;;;;;;5055759;28;20225;-61
2022/09/27 07:45:59;;;;;;;2.40;1.00;;;17.70;61.70;;;;;;5055814;28;20171;-61
2022/09/27 07:48:24;;;;;;;1.73;0.82;;;17.70;61.80;;;;;;5055463;28;20174;-62
2022/09/27 07:50:51;;;;;;;1.52;0.85;;;17.60;61.80;;;;;;5056068;28;20179;-61
2022/09/27 07:53:17;;;;;;;2.30;0.82;;;17.60;61.80;;;;;;5054255;28;20569;-61
2022/09/27 07:55:42;;;;;;;2.42;1.02;;;17.50;61.90;;;;;;5054844;28;20174;-62
2022/09/27 07:58:09;;;;;;;1.52;0.95;;;17.50;62.00;;;;;;5055471;28;20229;-61
2022/09/27 08:00:36;;;;;;;1.77;0.70;;;17.50;62.10;;;;;;5055601;28;20660;-61
2022/09/27 08:03:14;;;;;;;2.60;0.70;;;17.50;62.20;;;;;;5054593;28;20679;-61
2022/09/27 08:05:41;;;;;;;0.98;0.80;;;17.60;62.20;;;;;;5055650;28;20182;-61
2022/09/27 08:08:06;;;;;;;2.28;1.05;;;17.50;62.10;;;;;;5054470;28;20611;-60
2022/09/27 08:10:32;;;;;;;1.83;0.85;;;17.60;62.10;;;;;;5055020;28;20732;-61
2022/09/27 08:12:59;;;;;;;2.25;1.00;;;17.60;62.10;;;;;;5055003;28;20258;-61
2022/09/27 08:15:27;;;;;;;1.23;0.75;;;17.50;62.00;;;;;;5054765;28;20209;-61
2022/09/27 08:17:53;;;;;;;2.30;0.98;;;17.50;62.00;;;;;;5055248;28;20179;-61
2022/09/27 08:20:18;;;;;;;1.67;0.88;;;17.50;62.00;;;;;;5054846;28;20217;-61
2022/09/27 08:22:44;;;;;;;2.70;0.75;;;17.50;62.00;;;;;;5054452;28;20179;-61
2022/09/27 08:25:10;;;;;;;2.63;0.65;;;17.60;62.00;;;;;;5054736;28;20646;-61
2022/09/27 08:27:35;;;;;;;2.13;0.80;;;17.70;61.90;;;;;;5054477;28;20171;-60
2022/09/27 08:30:02;;;;;;;0.70;0.70;;;17.70;61.80;;;;;;5053778;28;20175;-61
2022/09/27 08:32:29;;;;;;;1.50;0.85;;;17.70;61.70;;;;;;5055091;28;20171;-60
2022/09/27 08:34:55;;;;;;;1.05;0.60;;;17.70;61.50;;;;;;5055099;28;20270;-61
2022/09/27 08:37:20;;;;;;;0.80;0.60;;;17.70;61.50;;;;;;5053875;28;20261;-61
2022/09/27 08:39:46;;;;;;;1.42;0.80;;;17.60;61.50;;;;;;5054645;28;20225;-61
2022/09/27 08:42:34;;;;;;;2.42;1.20;;;17.60;61.60;;;;;;5054507;28;20536;-61
2022/09/27 08:45:08;;;;;;;1.20;0.68;;;17.60;61.80;;;;;;5052913;28;20198;-61
2022/09/27 08:47:54;;;;;;;2.45;1.02;;;17.60;61.90;;;;;;5053808;28;20636;-61
2022/09/27 08:50:35;;;;;;;0.68;0.50;;;17.70;61.80;;;;;;5036334;28;20544;-61
2022/09/27 08:53:23;;;;;;;1.95;0.82;;;17.60;61.80;;;;;;5053365;28;20175;-61
2022/09/27 08:55:50;;;;;;;1.80;0.75;;;17.60;61.70;;;;;;5054598;28;20175;-61
2022/09/27 08:58:26;;;;;;;1.95;0.75;;;17.60;61.80;;;;;;5053435;28;20175;-61
2022/09/27 09:00:59;;;;;;;2.20;0.90;;;17.60;61.70;;;;;;5053788;28;20217;-61
2022/09/27 09:03:26;;;;;;;0.68;0.57;;;17.60;61.80;;;;;;5036941;28;20342;-61
2022/09/27 09:06:04;;;;;;;1.73;0.85;;;17.60;61.80;;;;;;5052574;28;20183;-61
2022/09/27 09:08:38;;;;;;;0.77;0.65;;;17.60;61.80;;;;;;5054209;28;20633;-60
2022/09/27 09:14:11;;;;;;;0.75;0.57;;;17.50;61.70;;;;;;5054039;28;20221;-61
2022/09/27 09:17:06;;;;;;;2.90;0.80;;;17.50;61.70;;;;;;5054332;28;20254;-61
2022/09/27 09:19:50;;;;;;;0.60;0.60;;;17.50;61.70;;;;;;5037928;28;20292;-61
2022/09/27 09:22:36;;;;;;;2.03;0.80;;;17.50;61.70;;;;;;5053665;28;20174;-62
2022/09/27 09:25:16;;;;;;;1.13;0.57;;;17.50;61.80;;;;;;5053747;28;20270;-61
2022/09/27 09:27:53;;;;;;;1.50;0.82;;;17.50;61.80;;;;;;5052779;28;20699;-61
2022/09/27 09:30:23;;;;;;;2.70;0.60;;;17.40;61.80;;;;;;5053718;28;20310;-61
2022/09/27 09:33:21;;;;;;;1.77;0.60;;;17.50;62.00;;;;;;5051944;28;20641;-61
2022/09/27 09:35:58;;;;;;;1.80;0.80;;;17.50;62.10;;;;;;5053818;28;20262;-61
2022/09/27 09:38:37;;;;;;;2.10;0.90;;;17.50;62.80;;;;;;5036767;28;20629;-61
2022/09/27 09:41:07;;;;;;;1.48;0.60;;;17.60;62.00;;;;;;5051257;28;20218;-61
2022/09/27 09:43:47;;;;;;;2.72;0.98;;;17.40;61.90;;;;;;5051973;28;20254;-60
2022/09/27 09:46:21;;;;;;;1.58;0.73;;;17.50;62.20;;;;;;5049836;28;20244;-62
2022/09/27 09:48:54;;;;;;;2.08;1.10;;;17.50;62.10;;;;;;5051937;28;20537;-61
2022/09/27 09:51:27;;;;;;;2.03;0.85;;;17.40;62.10;;;;;;5062098;28;20186;-62
2022/09/27 09:54:01;;;;;;;1.95;0.63;;;17.40;62.20;;;;;;5057190;28;20253;-61
2022/09/27 09:56:47;;;;;;;1.10;0.70;;;17.40;62.20;;;;;;5071898;28;20521;-61
2022/09/27 09:59:40;;;;;;;1.08;0.75;;;17.40;62.20;;;;;;5056723;28;20569;-61
2022/09/27 10:02:27;;;;;;;2.13;0.75;;;17.40;62.20;;;;;;5033372;28;20190;-61
2022/09/27 10:04:52;;;;;;;2.97;0.73;;;17.40;62.20;;;;;;5051936;28;20190;-60
2022/09/27 10:07:20;;;;;;;0.93;0.65;;;17.40;62.20;;;;;;5063820;28;20171;-60
2022/09/27 10:09:46;;;;;;;0.65;0.60;;;17.30;62.10;;;;;;5069534;28;20185;-60
2022/09/27 10:12:11;;;;;;;0.85;0.50;;;17.40;62.10;;;;;;5052399;28;20227;-61
2022/09/27 10:14:37;;;;;;;1.42;0.80;;;17.30;62.90;;;;;;5052531;28;20183;-61
2022/09/27 10:17:03;;;;;;;1.33;0.90;;;17.30;62.00;;;;;;5051552;28;20305;-61
2022/09/27 10:19:30;;;;;;;2.10;0.85;;;17.30;62.00;;;;;;5051590;28;20195;-62
2022/09/27 10:21:59;;;;;;;1.92;0.77;;;17.40;62.10;;;;;;5052412;28;20182;-61
2022/09/27 10:24:24;;;;;;;1.52;0.85;;;17.30;62.10;;;;;;5063643;28;20536;-61
2022/09/27 10:26:50;;;;;;;1.55;0.60;;;17.40;62.20;;;;;;5072899;28;20633;-60
2022/09/27 10:29:18;;;;;;;0.95;0.60;;;17.40;62.30;;;;;;5071972;28;20166;-60
2022/09/27 10:31:46;;;;;;;1.52;0.60;;;17.40;63.10;;;;;;5074060;28;20178;-62
2022/09/27 10:34:50;;;;;;;1.90;0.70;;;17.40;62.30;;;;;;5071260;28;20187;-60
2022/09/27 10:37:17;;;;;;;2.08;0.68;;;17.40;62.10;;;;;;5049538;28;20517;-61
2022/09/27 10:39:44;;;;;;;1.65;0.70;;;17.40;63.00;;;;;;5050462;28;20211;-64
2022/09/27 10:42:36;;;;;;;2.15;0.57;;;17.40;62.20;;;;;;5050205;28;20189;-63
2022/09/27 10:45:33;;;;;;;2.97;0.80;;;17.50;62.30;;;;;;5072430;28;20585;-64
2022/09/27 10:47:59;;;;;;;1.05;0.68;;;17.50;62.30;;;;;;5072561;28;20196;-64
2022/09/27 10:50:27;;;;;;;2.10;0.60;;;17.50;62.30;;;;;;5070888;28;20176;-63
2022/09/27 10:53:12;;;;;;;1.50;0.60;;;17.50;62.30;;;;;;5076063;28;20211;-64
2022/09/27 10:55:38;;;;;;;0.88;0.50;;;17.50;62.30;;;;;;5076992;28;20210;-64
2022/09/27 10:58:04;;;;;;;2.00;0.77;;;17.50;62.40;;;;;;5066621;28;20167;-63
2022/09/27 11:00:36;;;;;;;1.67;0.90;;;17.50;62.40;;;;;;5056588;28;20222;-61
2022/09/27 11:03:04;;;;;;;1.95;0.63;;;17.60;62.50;;;;;;5056590;28;20258;-60
2022/09/27 11:05:34;;;;;;;1.83;0.90;;;17.60;63.40;;;;;;5054821;28;20301;-62
2022/09/27 11:08:24;;;;;;;2.90;0.90;;;17.60;62.50;;;;;;5056515;28;20199;-65
2022/09/27 11:11:06;;;;;;;2.30;0.70;;;17.60;62.50;;;;;;5052858;28;20326;-65
2022/09/27 11:13:33;;;;;;;2.55;0.88;;;17.60;62.50;;;;;;5056418;28;20174;-61
2022/09/27 11:16:18;;;;;;;5.03;0.95;;;17.60;62.30;;;;;;5055943;28;20598;-62
2022/09/27 11:19:14;;;;;;;1.85;0.82;;;17.50;62.30;;;;;;5054482;28;20626;-64
2022/09/27 11:22:00;;;;;;;6.68;1.20;;;17.50;62.40;;;;;;5056307;28;20201;-64
2022/09/27 11:24:44;;;;;;;1.85;1.00;;;17.50;62.50;;;;;;5039443;28;20178;-65
2022/09/27 11:27:25;;;;;;;6.93;1.48;;;17.50;62.40;;;;;;5055226;28;20421;-68
2022/09/27 11:30:14;;;;;;;2.85;1.10;;;17.50;62.50;;;;;;5064888;28;20171;-67
2022/09/27 11:33:07;;;;;;;3.17;1.13;;;17.50;62.50;;;;;;5067210;28;20182;-67
2022/09/27 11:35:47;;;;;;;2.28;1.10;;;17.50;62.60;;;;;;5074571;28;20264;-66
2022/09/27 11:38:35;;;;;;;1.85;1.48;;;17.50;62.60;;;;;;5052452;28;20183;-68
2022/09/27 11:41:33;;;;;;;4.03;0.88;;;17.50;62.60;;;;;;5035117;28;20208;-65
2022/09/27 11:44:24;;;;;;;4.97;1.38;;;17.50;62.70;;;;;;5034641;28;20176;-64
2022/09/27 11:47:16;;;;;;;7.00;1.55;;;17.50;62.50;;;;;;5034246;28;20182;-64
2022/09/27 11:50:12;;;;;;;3.60;1.15;;;17.50;62.40;;;;;;5034898;28;20180;-64
2022/09/27 11:52:46;;;;;;;2.92;0.95;;;17.50;62.30;;;;;;5034850;28;20179;-64
2022/09/27 11:55:33;;;;;;;2.97;0.80;;;17.50;62.20;;;;;;5034283;28;20187;-64
2022/09/27 11:58:10;;;;;;;0.82;0.60;;;17.50;62.00;;;;;;5049867;28;20167;-64
2022/09/27 12:00:44;;;;;;;3.42;0.95;;;17.60;62.00;;;;;;5074855;28;20214;-64
2022/09/27 12:03:15;;;;;;;2.30;1.00;;;17.70;61.90;;;;;;5058094;28;20257;-63
2022/09/27 12:05:58;;;;;;;1.00;0.80;;;17.70;61.70;;;;;;5075446;28;20228;-63
2022/09/27 12:08:42;;;;;;;2.72;0.82;;;17.70;61.80;;;;;;5075173;28;20190;-63
2022/09/27 12:11:13;;;;;;;2.42;0.75;;;17.60;61.70;;;;;;5075033;28;20226;-64
2022/09/27 12:13:53;;;;;;;3.33;0.70;;;17.60;61.90;;;;;;5074390;28;20261;-64
2022/09/27 12:16:20;;;;;;;4.15;0.90;;;17.50;62.00;;;;;;5074965;28;20411;-64
2022/09/27 12:18:46;;;;;;;1.23;0.55;;;17.50;62.10;;;;;;5074291;28;20600;-64
2022/09/27 12:21:11;;;;;;;1.73;0.70;;;17.50;62.20;;;;;;5074007;28;20631;-64
2022/09/27 12:23:41;;;;;;;2.30;0.70;;;17.50;62.10;;;;;;5057447;28;20257;-64
2022/09/27 12:26:19;;;;;;;4.82;0.73;;;17.40;62.00;;;;;;5075019;28;20178;-63
2022/09/27 12:28:51;;;;;;;2.88;0.93;;;17.50;62.10;;;;;;5056710;28;20636;-63
2022/09/27 12:31:43;;;;;;;2.97;1.38;;;17.40;62.00;;;;;;5057253;28;20293;-63
2022/09/27 12:34:20;;;;;;;2.83;1.00;;;17.40;62.10;;;;;;5073524;28;20658;-63
2022/09/27 12:37:02;;;;;;;2.08;0.90;;;17.40;62.10;;;;;;5057269;28;20200;-64
2022/09/27 12:39:43;;;;;;;1.00;0.60;;;17.40;61.90;;;;;;5058734;28;20214;-63
2022/09/27 12:42:35;;;;;;;1.10;0.70;;;17.50;61.90;;;;;;5074095;28;20261;-64
2022/09/27 12:45:01;;;;;;;3.10;0.95;;;17.50;61.80;;;;;;5057672;28;20182;-64
2022/09/27 12:47:26;;;;;;;1.20;0.80;;;17.50;61.70;;;;;;5074605;28;20178;-64
2022/09/27 12:50:29;;;;;;;2.17;0.60;;;17.50;61.70;;;;;;5073840;28;20316;-64
2022/09/27 12:53:03;;;;;;;1.08;0.45;;;17.50;61.70;;;;;;5074655;28;20174;-64
2022/09/27 12:55:49;;;;;;;1.02;0.52;;;17.60;61.70;;;;;;5057570;28;20174;-64
2022/09/27 12:58:27;;;;;;;2.15;0.60;;;17.60;61.60;;;;;;5064169;28;20167;-64
2022/09/27 13:01:13;;;;;;;1.85;0.60;;;17.60;61.40;;;;;;5053354;28;20260;-64
2022/09/27 13:04:11;;;;;;;0.98;0.55;;;17.60;61.30;;;;;;5052541;28;20182;-64
2022/09/27 13:06:37;;;;;;;2.25;0.60;;;17.50;61.30;;;;;;5053861;28;20258;-64
2022/09/27 13:09:21;;;;;;;0.45;0.45;;;17.50;61.40;;;;;;5053963;28;20183;-63
2022/09/27 13:11:53;;;;;;;1.65;0.93;;;17.50;62.20;;;;;;5053161;28;20708;-64
2022/09/27 13:14:24;;;;;;;1.17;0.45;;;17.60;61.20;;;;;;5053390;28;20187;-64
2022/09/27 13:16:50;;;;;;;1.38;0.60;;;17.60;61.20;;;;;;5053322;28;20175;-64
2022/09/27 13:19:34;;;;;;;0.90;0.73;;;17.50;61.30;;;;;;5052753;28;20182;-65